Time;durP1;ratioP1;P1;durP2;ratioP2;P2;SDS_P1;SDS_P2;PMS_P1;PMS_P2;Temp;Humidity;BMP_temperature;BMP_pressure;BME280_temperature;BME280_humidity;BME280_pressure;Samples;Min_cycle;Max_cycle;Signal;HPM_P1;HPM_P2
2023/10/27 00:01:50;;;;;;;1.20;0.80;;;;;;;10.42;90.23;94137.16;107125;1273;25246;-80
2023/10/27 00:04:18;;;;;;;3.60;1.10;;;;;;;10.47;90.40;94142.55;106854;1274;22520;-80
2023/10/27 00:06:46;;;;;;;5.50;1.10;;;;;;;10.54;90.21;94150.16;106801;1273;25422;-81
2023/10/27 00:09:14;;;;;;;1.40;0.90;;;;;;;10.59;90.57;94157.02;106882;1273;22527;-80
2023/10/27 00:11:42;;;;;;;2.30;0.90;;;;;;;10.64;90.50;94164.20;106841;1273;22524;-82
2023/10/27 00:14:10;;;;;;;1.90;1.10;;;;;;;10.68;90.76;94170.00;106805;1273;22699;-82
2023/10/27 00:16:39;;;;;;;3.10;0.90;;;;;;;10.75;90.57;94167.40;106875;1273;24228;-79
2023/10/27 00:19:06;;;;;;;2.60;1.30;;;;;;;10.88;92.08;94158.05;106846;1273;22558;-82
2023/10/27 00:21:35;;;;;;;2.60;1.40;;;;;;;11.02;91.77;94146.19;106856;1274;24395;-81
2023/10/27 00:24:03;;;;;;;5.70;2.00;;;;;;;11.14;91.83;94141.66;106836;1273;24435;-80
2023/10/27 00:26:32;;;;;;;3.00;1.50;;;;;;;11.27;92.20;94135.27;106903;1273;22528;-81
2023/10/27 00:28:59;;;;;;;4.10;1.40;;;;;;;11.39;92.05;94133.14;106860;1273;25389;-81
2023/10/27 00:31:28;;;;;;;4.60;1.10;;;;;;;11.47;91.86;94133.10;106850;1273;22532;-80
2023/10/27 00:33:58;;;;;;;2.80;1.30;;;;;;;11.51;91.48;94134.36;106866;1274;22701;-81
2023/10/27 00:36:27;;;;;;;1.60;1.30;;;;;;;11.60;91.81;94135.19;106860;1274;24373;-82
2023/10/27 00:38:54;;;;;;;6.10;1.70;;;;;;;11.70;92.05;94130.28;106743;1274;22534;-81
2023/10/27 00:41:24;;;;;;;1.90;1.50;;;;;;;11.79;91.88;94129.38;106772;1273;22580;-81
2023/10/27 00:43:52;;;;;;;3.50;1.20;;;;;;;11.81;91.15;94131.92;106872;1273;24250;-80
2023/10/27 00:46:20;;;;;;;5.00;1.40;;;;;;;11.79;91.50;94124.45;106866;1263;24281;-83
2023/10/27 00:48:49;;;;;;;3.70;1.40;;;;;;;11.82;92.04;94125.70;106860;1274;24276;-82
2023/10/27 00:51:17;;;;;;;2.60;1.60;;;;;;;11.85;91.67;94129.05;106559;1273;234660;-80
2023/10/27 00:53:47;;;;;;;5.50;1.60;;;;;;;11.83;90.93;94131.82;106856;1273;22559;-82
2023/10/27 00:56:15;;;;;;;1.90;1.40;;;;;;;11.81;90.99;94129.95;106893;1274;24335;-81
2023/10/27 00:58:43;;;;;;;3.00;1.50;;;;;;;11.79;90.87;94124.45;106928;1273;22637;-83
2023/10/27 01:01:15;;;;;;;4.70;1.80;;;;;;;11.76;91.10;94123.69;106789;1274;24263;-82
2023/10/27 01:03:44;;;;;;;5.60;1.80;;;;;;;11.74;91.02;94119.19;106847;1274;25435;-83
2023/10/27 01:06:12;;;;;;;2.60;1.30;;;;;;;11.77;91.25;94117.49;106822;1273;22521;-83
2023/10/27 01:08:40;;;;;;;2.50;1.00;;;;;;;11.79;91.16;94118.63;106884;1273;22544;-81
2023/10/27 01:11:09;;;;;;;1.80;1.10;;;;;;;11.79;90.86;94115.98;106867;1274;24346;-82
2023/10/27 01:13:37;;;;;;;5.20;1.50;;;;;;;11.79;90.72;94111.94;106923;1274;22523;-82
2023/10/27 01:16:05;;;;;;;1.50;1.10;;;;;;;11.82;91.04;94108.81;106849;1273;23103;-82
2023/10/27 01:18:33;;;;;;;2.20;1.10;;;;;;;11.82;90.50;94108.09;106862;1274;22651;-81
2023/10/27 01:21:02;;;;;;;1.80;1.20;;;;;;;11.73;89.82;94108.48;106764;1274;24269;-81
2023/10/27 01:23:30;;;;;;;4.00;1.40;;;;;;;11.76;90.81;94102.55;106858;1273;25236;-81
2023/10/27 01:25:58;;;;;;;2.60;1.20;;;;;;;11.79;90.62;94102.44;106883;1273;24283;-81
2023/10/27 01:28:26;;;;;;;2.90;1.30;;;;;;;11.82;90.97;94103.86;107028;1273;22775;-80
2023/10/27 01:30:54;;;;;;;3.60;1.20;;;;;;;11.85;90.47;94102.80;106996;1273;22658;-81
2023/10/27 01:33:23;;;;;;;6.70;1.40;;;;;;;11.81;90.18;94098.97;106899;1273;25249;-81
2023/10/27 01:35:52;;;;;;;3.40;1.10;;;;;;;11.75;89.90;94096.80;106867;1274;24285;-81
2023/10/27 01:38:20;;;;;;;4.90;1.20;;;;;;;11.70;90.13;94102.98;106881;1273;22639;-82
2023/10/27 01:40:48;;;;;;;2.40;1.30;;;;;;;11.71;90.74;94105.95;106816;1273;24378;-81
2023/10/27 01:43:16;;;;;;;2.70;1.70;;;;;;;11.74;90.51;94100.01;106794;1273;24206;-82
2023/10/27 01:45:44;;;;;;;5.80;1.70;;;;;;;11.67;90.09;94094.69;106759;1256;24999;-81
2023/10/27 01:48:13;;;;;;;5.90;1.60;;;;;;;11.65;90.53;94089.85;106936;1273;22517;-81
2023/10/27 01:50:41;;;;;;;2.60;1.70;;;;;;;11.64;90.71;94088.83;106873;1273;25424;-82
2023/10/27 01:53:10;;;;;;;2.60;1.70;;;;;;;11.61;90.59;94084.21;106836;1273;25310;-82
2023/10/27 01:55:38;;;;;;;4.40;3.20;;;;;;;11.56;90.27;94081.11;106643;1274;25313;-83
2023/10/27 01:58:06;;;;;;;3.10;1.50;;;;;;;11.52;90.60;94077.63;106790;1273;22571;-80
2023/10/27 02:00:34;;;;;;;10.60;2.90;;;;;;;11.49;90.60;94074.23;106752;1274;22543;-81
2023/10/27 02:03:02;;;;;;;4.20;2.20;;;;;;;11.39;90.01;94067.29;106896;1273;22535;-81
2023/10/27 02:05:31;;;;;;;2.90;1.50;;;;;;;11.33;90.63;94063.89;106655;1274;24940;-81
2023/10/27 02:08:00;;;;;;;3.30;2.50;;;;;;;11.29;91.52;94060.36;106905;1274;22539;-80
2023/10/27 02:10:28;;;;;;;2.40;1.40;;;;;;;11.22;90.90;94062.06;106867;1274;22763;-81
2023/10/27 02:12:56;;;;;;;4.20;1.50;;;;;;;11.22;91.47;94059.07;106758;1274;22531;-81
2023/10/27 02:15:24;;;;;;;4.00;1.10;;;;;;;11.28;91.52;94054.77;106896;1273;24272;-81
2023/10/27 02:17:52;;;;;;;3.30;1.30;;;;;;;11.21;90.57;94052.27;106871;1273;22527;-80
2023/10/27 02:20:20;;;;;;;1.30;1.10;;;;;;;11.18;90.84;94050.81;106839;1273;22531;-80
2023/10/27 02:22:48;;;;;;;2.20;1.10;;;;;;;11.13;90.40;94051.25;106866;1274;24438;-81
2023/10/27 02:25:16;;;;;;;4.60;1.00;;;;;;;11.04;90.76;94050.57;106916;1273;22479;-80
2023/10/27 02:27:45;;;;;;;4.30;0.90;;;;;;;11.07;91.25;94055.74;106942;1273;25287;-80
2023/10/27 02:30:13;;;;;;;2.40;1.30;;;;;;;11.00;91.46;94056.91;106912;1273;22524;-80
2023/10/27 02:32:41;;;;;;;3.00;1.10;;;;;;;11.00;91.53;94059.89;106871;1273;22527;-80
2023/10/27 02:35:09;;;;;;;2.40;1.00;;;;;;;11.03;91.56;94061.17;106798;1274;22602;-81
2023/10/27 02:37:37;;;;;;;1.60;1.00;;;;;;;10.99;91.06;94059.23;106775;1273;24064;-80
2023/10/27 02:40:06;;;;;;;2.30;1.00;;;;;;;10.98;91.20;94060.16;106848;1274;22520;-80
2023/10/27 02:42:37;;;;;;;2.00;1.10;;;;;;;10.95;90.95;94061.17;106809;1274;25379;-80
2023/10/27 02:45:07;;;;;;;2.10;1.20;;;;;;;10.91;90.76;94062.78;106852;1273;24274;-80
2023/10/27 02:47:35;;;;;;;7.60;1.90;;;;;;;10.85;91.23;94060.91;106897;1269;24323;-80
2023/10/27 02:50:03;;;;;;;3.90;1.20;;;;;;;10.88;91.31;94060.48;106908;1274;22527;-80
2023/10/27 02:52:31;;;;;;;3.60;2.10;;;;;;;10.94;91.84;94059.14;106849;1273;22971;-81
2023/10/27 02:55:00;;;;;;;4.00;1.60;;;;;;;11.00;91.92;94055.66;106881;1274;22627;-81
2023/10/27 02:57:28;;;;;;;7.60;1.50;;;;;;;10.98;91.44;94050.16;106806;1274;24014;-80
2023/10/27 02:59:57;;;;;;;2.40;1.30;;;;;;;10.96;91.81;94047.41;106967;1273;25303;-80
2023/10/27 03:02:26;;;;;;;2.20;1.50;;;;;;;10.95;91.51;94049.23;106934;1273;25407;-80
2023/10/27 03:04:55;;;;;;;3.20;1.50;;;;;;;10.90;91.60;94049.95;106857;1263;22806;-81
2023/10/27 03:07:24;;;;;;;4.40;1.20;;;;;;;10.86;91.46;94044.15;106933;1274;26522;-80
2023/10/27 03:09:52;;;;;;;3.80;1.60;;;;;;;10.86;91.36;94044.52;106877;1273;24274;-82
2023/10/27 03:12:20;;;;;;;5.60;1.60;;;;;;;10.84;91.81;94040.03;106951;1274;24314;-80
2023/10/27 03:14:49;;;;;;;3.50;1.60;;;;;;;10.86;91.68;94043.30;106738;1274;22644;-80
2023/10/27 03:17:17;;;;;;;5.90;1.20;;;;;;;10.85;91.61;94041.92;106754;1274;22528;-80
2023/10/27 03:19:45;;;;;;;3.40;1.60;;;;;;;10.89;91.93;94038.05;106890;1273;25351;-81
2023/10/27 03:22:13;;;;;;;5.40;2.00;;;;;;;10.96;92.03;94040.41;106875;1274;22619;-81
2023/10/27 03:24:42;;;;;;;2.30;1.90;;;;;;;10.97;91.88;94039.45;106899;1274;23657;-81
2023/10/27 03:27:10;;;;;;;6.60;4.30;;;;;;;11.03;92.27;94039.16;106914;1273;22634;-80
2023/10/27 03:29:38;;;;;;;5.60;3.80;;;;;;;11.13;92.55;94032.95;106869;1273;22636;-81
2023/10/27 03:32:06;;;;;;;7.70;3.90;;;;;;;11.16;91.57;94034.73;106944;1274;22526;-81
2023/10/27 03:34:35;;;;;;;7.90;4.30;;;;;;;11.15;91.88;94035.32;106968;1274;25520;-81
2023/10/27 03:37:03;;;;;;;4.90;3.80;;;;;;;11.21;91.92;94035.33;106919;1273;22736;-80
2023/10/27 03:39:32;;;;;;;4.10;3.00;;;;;;;11.17;90.94;94032.73;106961;1274;23016;-81
2023/10/27 03:42:01;;;;;;;5.50;2.60;;;;;;;11.14;90.89;94029.72;106861;1273;22520;-80
2023/10/27 03:44:29;;;;;;;4.30;2.00;;;;;;;11.14;91.04;94026.20;106701;1273;24223;-81
2023/10/27 03:46:57;;;;;;;2.40;1.10;;;;;;;11.13;90.94;94024.14;106923;1274;22531;-81
2023/10/27 03:49:25;;;;;;;4.70;1.10;;;;;;;11.11;90.93;94021.58;106849;1273;25341;-81
2023/10/27 03:51:54;;;;;;;1.50;1.40;;;;;;;11.17;91.87;94017.96;106918;1274;25372;-81
2023/10/27 03:54:22;;;;;;;3.50;2.00;;;;;;;11.25;91.84;94015.29;106894;1274;22551;-80
2023/10/27 03:56:51;;;;;;;3.60;1.50;;;;;;;11.24;91.05;94022.75;106854;1274;22542;-81
2023/10/27 03:59:19;;;;;;;3.10;1.00;;;;;;;11.20;91.48;94019.20;106825;1274;23931;-82
2023/10/27 04:01:47;;;;;;;6.70;1.70;;;;;;;11.23;91.88;94010.80;106944;1274;22550;-82
2023/10/27 04:04:15;;;;;;;4.60;3.10;;;;;;;11.23;92.18;94015.17;106851;1273;22612;-81
2023/10/27 04:06:45;;;;;;;5.20;3.40;;;;;;;11.25;92.12;94015.11;106884;1274;22527;-81
2023/10/27 04:09:13;;;;;;;7.00;4.20;;;;;;;11.29;92.04;94015.83;106837;1274;24242;-80
2023/10/27 04:11:42;;;;;;;3.40;2.50;;;;;;;11.28;91.64;94014.45;106887;1273;24410;-80
2023/10/27 04:14:10;;;;;;;4.30;2.10;;;;;;;11.31;91.99;94015.73;106900;1273;22582;-80
2023/10/27 04:16:38;;;;;;;6.50;2.00;;;;;;;11.34;92.15;94012.95;106887;1273;22527;-80
2023/10/27 04:19:06;;;;;;;1.50;1.30;;;;;;;11.36;92.29;94010.73;106756;1274;22525;-80
2023/10/27 04:21:34;;;;;;;3.30;1.20;;;;;;;11.42;92.51;94011.12;106871;1274;22636;-80
2023/10/27 04:24:03;;;;;;;2.90;1.30;;;;;;;11.51;93.04;94004.56;106907;1274;22531;-80
2023/10/27 04:26:31;;;;;;;2.90;1.30;;;;;;;11.56;92.87;94000.61;107094;1274;22524;-80
2023/10/27 04:28:59;;;;;;;4.50;1.10;;;;;;;11.63;93.09;93996.27;107148;1273;24387;-81
2023/10/27 04:31:27;;;;;;;2.20;1.20;;;;;;;11.73;93.09;93991.18;107050;1274;22609;-80
2023/10/27 04:33:56;;;;;;;1.30;1.10;;;;;;;11.85;93.14;93990.64;107029;1250;24207;-80
2023/10/27 04:36:24;;;;;;;1.90;0.90;;;;;;;11.98;93.41;93993.19;106943;1274;25425;-80
2023/10/27 04:38:52;;;;;;;1.80;0.90;;;;;;;12.05;93.61;93990.88;106825;1274;25500;-80
2023/10/27 04:41:20;;;;;;;6.10;1.20;;;;;;;12.09;93.54;93989.26;106742;1274;25558;-80
2023/10/27 04:43:48;;;;;;;1.60;1.10;;;;;;;12.14;93.47;93983.38;106947;1274;22524;-80
2023/10/27 04:46:16;;;;;;;2.00;0.90;;;;;;;12.22;93.52;93982.98;106876;1274;26589;-80
2023/10/27 04:48:44;;;;;;;1.00;0.90;;;;;;;12.30;93.49;93981.31;106869;1274;22507;-80
2023/10/27 04:51:12;;;;;;;3.40;1.00;;;;;;;12.39;93.57;93981.95;106905;1274;22525;-81
2023/10/27 04:53:41;;;;;;;2.20;1.50;;;;;;;12.45;93.17;93972.27;106829;1257;22664;-81
2023/10/27 04:56:09;;;;;;;5.20;4.10;;;;;;;12.40;91.47;93966.90;106995;1273;22659;-82
2023/10/27 04:58:38;;;;;;;7.70;4.40;;;;;;;12.29;90.81;93967.96;106828;1273;22523;-81
2023/10/27 05:01:06;;;;;;;7.60;4.60;;;;;;;12.17;90.64;93970.73;106917;1273;25320;-80
2023/10/27 05:03:35;;;;;;;8.50;4.90;;;;;;;12.14;91.27;93975.10;106847;1263;22665;-81
2023/10/27 05:06:07;;;;;;;6.90;5.80;;;;;;;12.17;91.50;93964.39;106768;1274;24910;-81
2023/10/27 05:08:36;;;;;;;10.80;6.60;;;;;;;12.18;91.29;93970.70;106833;1274;22524;-80
2023/10/27 05:11:05;;;;;;;5.70;4.90;;;;;;;12.18;91.22;93971.91;106833;1273;24225;-80
2023/10/27 05:13:33;;;;;;;4.50;4.00;;;;;;;12.13;90.53;93980.98;106858;1273;22568;-81
2023/10/27 05:16:01;;;;;;;7.80;5.90;;;;;;;12.09;91.15;93980.11;106862;1273;22649;-81
2023/10/27 05:18:30;;;;;;;5.30;4.40;;;;;;;12.17;91.76;93983.92;106891;1273;25383;-81
2023/10/27 05:20:58;;;;;;;7.20;5.00;;;;;;;12.17;90.95;93987.09;106933;1274;24276;-81
2023/10/27 05:23:26;;;;;;;7.50;5.20;;;;;;;12.19;91.44;93988.62;106877;1273;25326;-81
2023/10/27 05:25:54;;;;;;;6.30;3.90;;;;;;;12.25;91.49;93992.14;106799;1274;25280;-81
2023/10/27 05:28:22;;;;;;;8.40;4.00;;;;;;;12.30;91.55;93989.80;106840;1273;25407;-81
2023/10/27 05:30:51;;;;;;;7.90;6.50;;;;;;;12.29;91.32;93987.73;106772;1273;24268;-81
2023/10/27 05:33:20;;;;;;;7.00;5.50;;;;;;;12.33;91.63;93987.53;106935;1273;22511;-81
2023/10/27 05:35:48;;;;;;;4.90;4.30;;;;;;;12.34;91.00;93986.59;106864;1273;26526;-81
2023/10/27 05:38:18;;;;;;;4.20;3.80;;;;;;;12.34;91.13;93984.64;107094;1273;24055;-81
2023/10/27 05:40:46;;;;;;;6.90;4.40;;;;;;;12.33;90.91;93978.88;106857;1273;22536;-81
2023/10/27 05:43:17;;;;;;;4.60;3.80;;;;;;;12.28;90.54;93985.50;106877;1274;23933;-81
2023/10/27 05:45:46;;;;;;;5.10;3.60;;;;;;;12.25;90.80;93983.88;106994;1274;22560;-81
2023/10/27 05:48:14;;;;;;;6.90;3.70;;;;;;;12.24;91.01;93987.29;106766;1274;25255;-81
2023/10/27 05:50:42;;;;;;;6.70;4.20;;;;;;;12.24;91.10;93993.45;106760;1274;22639;-81
2023/10/27 05:53:10;;;;;;;8.80;3.80;;;;;;;12.22;91.03;93988.45;106871;1274;25601;-82
2023/10/27 05:55:39;;;;;;;43.50;32.70;;;;;;;12.19;91.75;93979.61;106741;1274;22527;-82
2023/10/27 05:58:07;;;;;;;6.00;4.50;;;;;;;12.22;91.91;93975.58;106862;1270;25338;-81
2023/10/27 06:00:37;;;;;;;6.10;4.60;;;;;;;12.31;92.22;93979.51;107236;1274;24231;-81
2023/10/27 06:03:05;;;;;;;5.60;4.30;;;;;;;12.35;91.68;93977.73;106958;1274;22531;-82
2023/10/27 06:05:33;;;;;;;5.60;4.90;;;;;;;12.31;91.98;93978.96;106927;1273;25496;-82
2023/10/27 06:08:03;;;;;;;11.40;6.70;;;;;;;12.36;92.35;93977.68;106840;1274;22509;-83
2023/10/27 06:10:32;;;;;;;9.90;5.30;;;;;;;12.46;92.59;93975.41;106881;1274;22631;-82
2023/10/27 06:13:00;;;;;;;7.60;5.20;;;;;;;12.52;92.12;93974.55;107043;1274;22556;-84
2023/10/27 06:15:28;;;;;;;6.10;3.70;;;;;;;12.53;91.69;93979.27;107013;1275;24453;-82
2023/10/27 06:17:56;;;;;;;5.60;4.80;;;;;;;12.58;92.30;93983.23;107053;1274;24388;-82
2023/10/27 06:20:24;;;;;;;10.10;4.90;;;;;;;12.67;92.52;93978.16;106936;1274;23900;-82
2023/10/27 06:22:53;;;;;;;8.00;5.60;;;;;;;12.70;91.82;93982.60;107052;1274;22846;-81
2023/10/27 06:25:25;;;;;;;8.30;6.80;;;;;;;12.77;92.42;93974.63;107079;1275;22535;-82
2023/10/27 06:27:54;;;;;;;10.70;6.30;;;;;;;12.80;91.83;93978.58;106982;1275;23928;-82
2023/10/27 06:30:23;;;;;;;10.60;6.60;;;;;;;12.77;91.40;93971.66;107112;1274;25532;-83
2023/10/27 06:32:51;;;;;;;9.50;7.70;;;;;;;12.75;91.52;93964.70;110490;1274;22135;-82
2023/10/27 06:35:19;;;;;;;11.40;6.40;;;;;;;12.80;91.85;93961.45;110555;1274;22266;-85
2023/10/27 06:37:47;;;;;;;7.20;5.90;;;;;;;12.84;91.40;93965.67;110569;1275;22929;-84
2023/10/27 06:40:15;;;;;;;6.90;4.40;;;;;;;12.79;91.11;93956.21;110537;1265;22309;-84
2023/10/27 06:42:44;;;;;;;8.30;7.50;;;;;;;12.78;91.35;93940.19;110507;1274;22985;-82
2023/10/27 06:45:12;;;;;;;12.80;8.40;;;;;;;12.84;91.47;93939.91;110524;1274;23116;-83
2023/10/27 06:47:41;;;;;;;5.40;3.70;;;;;;;12.86;91.35;93946.32;110528;1274;22179;-82
2023/10/27 06:50:10;;;;;;;6.70;3.00;;;;;;;12.87;91.44;93950.98;110546;1275;22899;-84
2023/10/27 06:52:39;;;;;;;4.80;3.10;;;;;;;12.91;91.39;93948.52;110529;1274;22178;-82
2023/10/27 06:55:07;;;;;;;13.40;9.50;;;;;;;13.01;92.09;93950.77;110551;1274;22253;-84
2023/10/27 06:57:37;;;;;;;13.40;11.70;;;;;;;13.16;92.44;93953.99;110588;1274;22165;-83
2023/10/27 07:00:06;;;;;;;15.70;14.10;;;;;;;13.29;91.95;93940.63;110539;1274;22226;-84
2023/10/27 07:02:35;;;;;;;12.00;10.80;;;;;;;13.37;91.40;93933.48;110593;1274;22240;-83
2023/10/27 07:05:23;;;;;;;11.30;10.00;;;;;;;13.44;91.38;93931.16;110548;1274;22156;-86
2023/10/27 07:07:53;;;;;;;12.90;9.30;;;;;;;13.48;91.11;93928.61;110516;1274;22208;-85
2023/10/27 07:10:21;;;;;;;11.10;8.50;;;;;;;13.51;90.63;93922.11;110530;1275;22354;-84
2023/10/27 07:12:49;;;;;;;13.50;8.20;;;;;;;13.58;90.99;93923.65;110554;1274;23144;-84
2023/10/27 07:15:19;;;;;;;12.40;8.00;;;;;;;13.68;91.20;93917.27;110550;1274;22214;-84
2023/10/27 07:17:47;;;;;;;12.70;8.90;;;;;;;13.77;90.94;93920.42;110538;1270;22242;-85
2023/10/27 07:20:16;;;;;;;12.80;9.50;;;;;;;13.83;90.61;93910.89;110561;1274;22207;-83
2023/10/27 07:22:44;;;;;;;15.30;10.70;;;;;;;13.80;89.68;93912.99;110582;1274;22222;-84
2023/10/27 07:25:13;;;;;;;13.00;7.60;;;;;;;13.77;89.51;93906.85;110600;1274;22211;-85
2023/10/27 07:27:43;;;;;;;8.80;6.50;;;;;;;13.73;89.50;93896.81;110519;1275;22996;-83
2023/10/27 07:30:11;;;;;;;8.40;5.60;;;;;;;13.73;89.63;93904.58;110570;1274;23077;-86
2023/10/27 07:32:39;;;;;;;10.20;6.20;;;;;;;13.75;89.76;93902.17;110575;1274;22358;-85
2023/10/27 07:35:08;;;;;;;8.10;5.90;;;;;;;13.77;89.35;93896.24;110583;1272;22303;-84
2023/10/27 07:37:36;;;;;;;15.30;13.80;;;;;;;13.77;89.82;93897.11;110566;1274;22241;-86
2023/10/27 07:40:05;;;;;;;12.80;10.00;;;;;;;13.81;89.29;93885.36;110572;1260;22389;-84
2023/10/27 07:42:34;;;;;;;8.40;5.80;;;;;;;13.83;89.77;93882.27;110550;1274;22218;-83
2023/10/27 07:45:04;;;;;;;10.10;5.30;;;;;;;13.87;89.42;93873.90;110532;1274;22185;-83
2023/10/27 07:47:32;;;;;;;10.90;6.40;;;;;;;13.84;89.15;93885.88;110497;1275;22236;-83
2023/10/27 07:50:00;;;;;;;12.00;7.10;;;;;;;13.81;89.61;93885.38;110555;1274;22253;-87
2023/10/27 07:52:29;;;;;;;11.40;7.20;;;;;;;13.83;90.14;93873.06;110542;1275;23027;-85
2023/10/27 07:54:57;;;;;;;11.50;7.50;;;;;;;13.94;90.26;93885.01;110567;1275;22173;-83
2023/10/27 07:57:26;;;;;;;8.10;6.40;;;;;;;14.04;90.38;93879.98;110550;1274;22998;-83
2023/10/27 07:59:54;;;;;;;12.10;8.10;;;;;;;14.09;89.95;93869.04;110557;1274;22330;-85
2023/10/27 08:02:22;;;;;;;8.40;7.30;;;;;;;14.16;90.42;93859.77;110580;1274;22173;-83
2023/10/27 08:04:50;;;;;;;12.80;9.70;;;;;;;14.28;90.33;93858.86;110578;1274;22152;-82
2023/10/27 08:07:18;;;;;;;13.00;10.40;;;;;;;14.35;90.16;93858.68;110536;1274;22212;-81
2023/10/27 08:09:46;;;;;;;13.20;11.80;;;;;;;14.41;89.81;93848.73;110558;1275;22141;-82
2023/10/27 08:12:15;;;;;;;22.70;16.60;;;;;;;14.47;89.62;93845.34;110596;1274;22186;-84
2023/10/27 08:14:44;;;;;;;24.90;15.40;;;;;;;14.50;89.63;93837.55;110572;1263;22245;-84
2023/10/27 08:17:12;;;;;;;26.30;17.70;;;;;;;14.59;90.03;93838.61;110579;1275;22343;-84
2023/10/27 08:19:41;;;;;;;23.40;16.50;;;;;;;14.69;89.83;93832.53;110581;1274;22974;-83
2023/10/27 08:22:09;;;;;;;17.20;12.00;;;;;;;14.73;88.96;93828.92;110531;1274;22191;-82
2023/10/27 08:24:38;;;;;;;16.30;11.10;;;;;;;14.73;88.45;93832.63;110508;1274;22216;-80
2023/10/27 08:27:06;;;;;;;21.10;12.80;;;;;;;14.77;88.71;93830.28;110587;1275;22140;-81
2023/10/27 08:29:34;;;;;;;15.50;12.60;;;;;;;14.77;88.44;93822.84;110569;1274;22874;-86
2023/10/27 08:32:02;;;;;;;12.20;8.80;;;;;;;14.85;88.87;93824.63;110600;1274;22134;-82
2023/10/27 08:34:31;;;;;;;7.10;5.00;;;;;;;14.90;88.26;93820.94;110597;1275;22104;-83
2023/10/27 08:37:00;;;;;;;5.60;2.70;;;;;;;14.84;87.46;93827.84;110536;1274;22103;-82
2023/10/27 08:39:28;;;;;;;3.90;2.20;;;;;;;14.75;86.86;93822.92;110558;1274;23199;-83
2023/10/27 08:41:57;;;;;;;3.60;2.50;;;;;;;14.75;87.44;93817.26;110573;1274;23059;-84
2023/10/27 08:44:27;;;;;;;2.30;2.10;;;;;;;14.77;87.02;93817.33;110524;1275;22872;-85
2023/10/27 08:46:57;;;;;;;11.10;6.20;;;;;;;14.65;84.31;93820.04;110569;1274;22188;-85
2023/10/27 08:49:25;;;;;;;4.70;2.20;;;;;;;14.63;85.78;93822.61;110598;1275;22190;-83
2023/10/27 08:51:53;;;;;;;7.10;3.00;;;;;;;14.65;86.10;93820.35;110600;1274;22160;-83
2023/10/27 08:54:22;;;;;;;2.60;2.00;;;;;;;14.57;85.06;93818.59;110572;1274;22166;-82
2023/10/27 08:56:50;;;;;;;2.30;1.70;;;;;;;14.51;85.55;93811.83;110566;1275;22334;-82
2023/10/27 08:59:18;;;;;;;13.90;12.20;;;;;;;14.49;85.82;93806.33;110610;1260;22171;-84
2023/10/27 09:01:46;;;;;;;18.70;16.80;;;;;;;14.42;86.32;93789.98;110548;1274;22233;-84
2023/10/27 09:04:19;;;;;;;8.60;7.80;;;;;;;14.36;86.32;93790.32;110561;1274;22136;-82
2023/10/27 09:06:47;;;;;;;4.30;3.50;;;;;;;14.33;86.56;93799.88;110588;1274;22149;-83
2023/10/27 09:09:15;;;;;;;3.80;3.00;;;;;;;14.29;86.79;93794.30;110601;1274;22300;-83
2023/10/27 09:11:47;;;;;;;5.40;3.80;;;;;;;14.26;87.24;93792.16;110580;1274;22956;-83
2023/10/27 09:14:25;;;;;;;3.20;2.90;;;;;;;14.25;87.11;93791.48;110569;1274;22349;-83
2023/10/27 09:17:07;;;;;;;6.60;4.00;;;;;;;14.26;87.04;93785.06;110523;1274;22916;-84
2023/10/27 09:19:36;;;;;;;3.90;3.10;;;;;;;14.27;87.12;93783.77;110510;1274;22265;-82
2023/10/27 09:22:15;;;;;;;5.30;3.30;;;;;;;14.30;86.96;93774.21;110535;1274;23073;-82
2023/10/27 09:24:43;;;;;;;6.80;4.00;;;;;;;14.36;86.95;93766.97;110506;1274;22129;-83
2023/10/27 09:27:13;;;;;;;6.70;3.80;;;;;;;14.43;86.99;93756.26;110582;1274;22568;-83
2023/10/27 09:29:42;;;;;;;5.10;3.70;;;;;;;14.51;86.74;93743.56;110599;1274;22182;-83
2023/10/27 09:32:29;;;;;;;4.20;3.20;;;;;;;14.56;86.45;93739.75;110542;1275;22278;-83
2023/10/27 09:35:09;;;;;;;4.60;3.90;;;;;;;14.64;86.75;93739.55;110553;1274;22157;-84
2023/10/27 09:37:37;;;;;;;3.50;2.80;;;;;;;14.67;85.77;93734.07;110544;1274;22343;-82
2023/10/27 09:40:11;;;;;;;4.50;4.10;;;;;;;14.49;84.18;93723.19;110607;1274;22159;-84
2023/10/27 09:42:40;;;;;;;8.00;6.90;;;;;;;14.45;84.43;93721.34;110608;1274;22123;-84
2023/10/27 09:45:16;;;;;;;7.00;5.30;;;;;;;14.44;84.74;93717.45;110581;1274;22134;-84
2023/10/27 09:47:47;;;;;;;3.80;2.60;;;;;;;14.47;84.91;93716.73;110589;1274;22211;-84
2023/10/27 09:50:19;;;;;;;2.80;1.80;;;;;;;14.51;84.99;93705.34;110605;1274;22274;-84
2023/10/27 09:52:49;;;;;;;5.80;4.30;;;;;;;14.56;84.58;93701.67;110618;1274;22142;-83
2023/10/27 09:55:19;;;;;;;5.60;4.10;;;;;;;14.57;84.17;93700.79;110624;1274;22191;-83
2023/10/27 09:57:47;;;;;;;5.10;2.50;;;;;;;14.63;83.97;93690.29;110611;1274;22241;-83
2023/10/27 10:00:20;;;;;;;4.80;2.90;;;;;;;14.75;84.57;93679.23;110593;1274;22976;-83
2023/10/27 10:02:49;;;;;;;2.90;2.20;;;;;;;14.88;83.81;93665.12;110590;1274;22227;-82
2023/10/27 10:05:18;;;;;;;3.20;2.70;;;;;;;14.91;83.12;93679.22;110610;1274;22154;-83
2023/10/27 10:07:52;;;;;;;5.50;2.40;;;;;;;14.94;82.99;93671.95;110604;1274;22118;-83
2023/10/27 10:10:33;;;;;;;3.70;2.50;;;;;;;15.04;82.83;93658.73;110628;1274;22202;-83
2023/10/27 10:13:09;;;;;;;6.50;2.90;;;;;;;15.19;82.94;93666.77;110577;1274;22104;-83
2023/10/27 10:15:41;;;;;;;2.60;2.40;;;;;;;15.19;80.91;93660.36;110560;1274;22128;-82
2023/10/27 10:18:21;;;;;;;3.70;2.70;;;;;;;15.24;81.07;93660.92;110598;1274;22126;-84
2023/10/27 10:20:52;;;;;;;3.20;1.90;;;;;;;15.31;81.00;93663.80;110595;1274;22147;-83
2023/10/27 10:23:22;;;;;;;2.40;2.20;;;;;;;15.42;80.83;93639.52;110596;1274;22174;-83
2023/10/27 10:25:52;;;;;;;4.70;2.50;;;;;;;15.50;80.16;93638.80;110616;1274;22279;-83
2023/10/27 10:28:24;;;;;;;2.20;1.90;;;;;;;15.60;80.18;93625.36;110535;1274;22231;-83
2023/10/27 10:31:08;;;;;;;2.40;1.70;;;;;;;15.71;79.58;93627.61;110547;1274;22908;-82
2023/10/27 10:33:44;;;;;;;2.40;2.00;;;;;;;15.82;79.00;93620.31;110567;1274;22146;-84
2023/10/27 10:36:22;;;;;;;2.70;2.30;;;;;;;15.89;78.85;93617.30;110595;1274;23067;-83
2023/10/27 10:38:51;;;;;;;2.80;2.10;;;;;;;16.01;78.60;93599.27;110602;1274;22152;-82
2023/10/27 10:41:19;;;;;;;3.80;3.30;;;;;;;16.11;77.55;93600.14;110608;1274;22774;-82
2023/10/27 10:44:26;;;;;;;1.70;1.60;;;;;;;16.22;76.89;93589.25;110596;1274;22133;-82
2023/10/27 10:46:54;;;;;;;4.70;1.90;;;;;;;16.42;77.31;93581.24;110077;1280;22132;-82
2023/10/27 10:49:23;;;;;;;4.10;1.50;;;;;;;16.64;77.41;93576.75;110098;1280;22244;-82
2023/10/27 10:51:55;;;;;;;2.00;1.40;;;;;;;16.90;77.15;93567.52;110352;1274;22796;-82
2023/10/27 10:54:33;;;;;;;1.40;1.20;;;;;;;17.13;74.12;93567.06;110598;1274;22342;-82
2023/10/27 10:57:09;;;;;;;1.40;0.90;;;;;;;17.26;73.56;93569.06;110601;1274;22133;-83
2023/10/27 10:59:37;;;;;;;4.70;1.20;;;;;;;17.29;73.30;93550.38;110573;1274;22826;-83
2023/10/27 11:02:07;;;;;;;1.90;1.30;;;;;;;17.37;73.62;93549.39;110591;1274;22118;-81
2023/10/27 11:04:35;;;;;;;3.00;1.10;;;;;;;17.52;74.21;93557.64;110591;1274;22132;-82
2023/10/27 11:07:06;;;;;;;1.50;1.30;;;;;;;17.61;73.54;93556.41;110600;1274;22116;-82
2023/10/27 11:09:35;;;;;;;1.50;1.40;;;;;;;17.68;73.12;93557.29;110598;1274;22302;-82
2023/10/27 11:12:03;;;;;;;1.70;1.50;;;;;;;17.70;72.91;93556.25;110596;1274;22223;-82
2023/10/27 11:14:41;;;;;;;2.20;1.40;;;;;;;17.72;72.81;93556.08;110597;1274;22143;-82
2023/10/27 11:17:11;;;;;;;1.90;1.10;;;;;;;17.73;71.68;93551.86;110622;1260;22207;-82
2023/10/27 11:19:55;;;;;;;2.00;1.20;;;;;;;17.71;70.41;93539.61;110600;1274;22145;-81
2023/10/27 11:22:25;;;;;;;2.40;1.60;;;;;;;17.80;68.73;93530.91;110615;1274;22287;-78
2023/10/27 11:24:53;;;;;;;1.70;1.30;;;;;;;18.02;69.18;93535.02;110601;1274;22180;-80
2023/10/27 11:27:26;;;;;;;1.60;1.20;;;;;;;18.30;69.12;93519.25;110610;1274;22149;-80
2023/10/27 11:30:02;;;;;;;1.10;1.00;;;;;;;18.58;68.92;93522.64;110608;1274;22105;-79
2023/10/27 11:32:30;;;;;;;6.00;2.60;;;;;;;18.94;65.71;93534.32;110556;1274;22947;-81
2023/10/27 11:34:58;;;;;;;1.80;0.90;;;;;;;19.19;61.22;93530.05;110595;1274;22973;-79